F/V Roger Christian3 — FUFL — position and weather

sailwx.info

Track history (hours):
 
Tides and Currents Weather Stations Pressure Air Temp Water Temp Dewpoint Dewpoint Depression Visibility Wind Speed Wind Dir Waves Ship Positions

F/V Roger Christian3

Last reported at 2017-May-26 05:53 UTC. Time now 2017-May-26 09:21 UTC.
Position N 38°20' E 000°55'.

Length 24 m; draft 4 m.

Type: Fishing. MMSI: 228173800.

Date/timePositionNaut miles runAvg speedWind from/ knotsBaromVisibWave heightAir tempDewpointWater temp
2017-May-26 05:53N 38°20' E 000°55'0 0.5
2017-May-26 05:29N 38°20' E 000°55'0 0.5
2017-May-26 04:59N 38°20' E 000°55'1 0.5
2017-May-26 03:35N 38°21' E 000°55'0 0.5
2017-May-26 03:24N 38°21' E 000°55'2 0.7
2017-May-26 00:31N 38°23' E 000°56'0 0.7
2017-May-26 00:26N 38°23' E 000°56'0 0.6
2017-May-25 23:52N 38°23' E 000°56'0 0.6
2017-May-25 23:29N 38°23' E 000°56'1 0.6
2017-May-25 22:02N 38°24' E 000°56'0 0.7
2017-May-25 22:01N 38°24' E 000°56'0 0.6
2017-May-25 21:24N 38°24' E 000°56'0 0.5
2017-May-25 20:59N 38°25' E 000°55'0 0.6
2017-May-25 20:30N 38°25' E 000°55'0 0.5
2017-May-25 20:00N 38°25' E 000°55'0 0.5
2017-May-25 19:30N 38°26' E 000°55'1 0.6
2017-May-25 17:25N 38°27' E 000°56'1 0.5
2017-May-25 14:58N 38°26' E 000°57'1 0.7
2017-May-25 13:54N 38°25' E 000°57'0 0.7
2017-May-25 13:30N 38°25' E 000°57'0 0.7
2017-May-25 13:00N 38°25' E 000°57'0 0.7
2017-May-25 12:30N 38°24' E 000°57'0 0.7
2017-May-25 11:57N 38°24' E 000°58'0 0.6
2017-May-25 11:30N 38°24' E 000°58'4 0.5
2017-May-25 02:18N 38°26' E 001°03'3 0.6
2017-May-24 21:15N 38°26' E 000°59'1 1.2
2017-May-24 20:37N 38°26' E 000°58'1 1.2
2017-May-24 20:09N 38°26' E 000°57'1 1.3
2017-May-24 19:44N 38°25' E 000°57'0 1.2
2017-May-24 19:30N 38°25' E 000°56'0 1.0
2017-May-24 19:00N 38°25' E 000°56'0 0.8
2017-May-24 18:30N 38°25' E 000°55'3 0.4
2017-May-24 10:55N 38°23' E 000°59'5 1.2
2017-May-24 07:06N 38°22' E 001°04'0 1.2
2017-May-24 06:57N 38°22' E 001°05'1 1.3
2017-May-24 06:30N 38°22' E 001°05'1 1.3
2017-May-24 05:58N 38°21' E 001°06'1 1.5
2017-May-24 05:21N 38°21' E 001°07'1 2.0
2017-May-24 04:59N 38°20' E 001°07'1 1.8
2017-May-24 04:30N 38°20' E 001°06'1 1.4
2017-May-24 04:00N 38°20' E 001°05'5 1.3
2017-May-24 00:39N 38°24' E 001°02'0 1.4
2017-May-24 00:30N 38°24' E 001°02'1 1.3
2017-May-23 23:59N 38°24' E 001°01'4 1.1
2017-May-23 20:28N 38°28' E 000°59'5 0.6
2017-May-23 12:16N 38°24' E 001°01'13 1.1
2017-May-23 00:24N 38°36' E 000°57'1 1.9
2017-May-23 00:00N 38°37' E 000°57'9 1.7
2017-May-22 18:42N 38°46' E 000°57'1 1.4
2017-May-22 18:10N 38°47' E 000°56'0 1.4
2017-May-22 18:00N 38°47' E 000°56'1 1.4
2017-May-22 17:30N 38°47' E 000°56'1 1.3
2017-May-22 16:59N 38°48' E 000°56'1 1.3
2017-May-22 16:30N 38°49' E 000°56'1 1.4
2017-May-22 15:58N 38°49' E 000°56'1 1.4
2017-May-22 15:08N 38°51' E 000°56'3 1.5
2017-May-22 12:50N 38°54' E 000°56'51 2.1
2017-May-21 12:54N 39°45' E 000°56'11 2.1
2017-May-21 07:37N 39°56' E 000°56'1 2.2
2017-May-21 07:17N 39°57' E 000°56'1 2.2
2017-May-21 07:00N 39°58' E 000°56'1 2.2
2017-May-21 06:30N 39°59' E 000°56'1 2.3
2017-May-21 06:00N 39°60' E 000°56'1 2.3
2017-May-21 05:30N 40°01' E 000°56'1 2.4
2017-May-21 04:59N 40°02' E 000°56'1 2.4
2017-May-21 04:30N 40°03' E 000°56'2 2.4
2017-May-21 03:48N 40°05' E 000°56'1 2.5
2017-May-21 03:28N 40°06' E 000°56'1 2.5
2017-May-21 02:53N 40°07' E 000°56'1 2.6
2017-May-21 02:27N 40°09' E 000°55'1 2.6
2017-May-21 01:58N 40°10' E 000°55'1 2.6
2017-May-21 01:30N 40°11' E 000°55'1 2.6
2017-May-21 00:59N 40°12' E 000°55'1 2.4
2017-May-21 00:30N 40°13' E 000°56'1 2.3
2017-May-21 00:00N 40°14' E 000°56'1 2.3
2017-May-20 23:30N 40°16' E 000°56'3 2.4
2017-May-20 22:09N 40°19' E 000°57'0 2.3
2017-May-20 21:57N 40°19' E 000°57'1 2.3
2017-May-20 21:25N 40°20' E 000°57'1 2.3
2017-May-20 21:00N 40°21' E 000°57'1 2.3
2017-May-20 20:30N 40°23' E 000°57'1 2.2
2017-May-20 20:00N 40°24' E 000°57'1 2.3
2017-May-20 19:29N 40°25' E 000°57'1 2.2
2017-May-20 19:00N 40°26' E 000°57'1 2.2
2017-May-20 18:30N 40°27' E 000°57'1 2.2
2017-May-20 17:56N 40°28' E 000°57'2 2.2
2017-May-20 17:13N 40°30' E 000°57'1 2.1
2017-May-20 16:56N 40°30' E 000°57'1 2.1
2017-May-20 16:29N 40°31' E 000°57'1 2.1
2017-May-20 15:51N 40°33' E 000°57'1 2.0
2017-May-20 15:26N 40°34' E 000°57'4 2.0
2017-May-20 13:39N 40°37' E 000°57'0 2.0
2017-May-20 13:30N 40°37' E 000°57'1 2.1
2017-May-20 12:59N 40°38' E 000°57'16 0.9
2017-May-19 18:26N 40°53' E 000°48'10 0.4
2017-May-18 16:27N 40°44' E 000°56'610.2
2017-May-18 15:50N 40°38' E 000°53'511.3
2017-May-18 15:24N 40°35' E 000°48'7 1.7
2017-May-18 11:27N 40°39' E 000°56'15 3.1
2017-May-18 06:32N 40°53' E 000°48'0 0.1
2017-May-18 06:25N 40°53' E 000°48'24 6.4
2017-May-18 02:40N 40°53' E 001°20'210.1
2017-May-18 02:29N 40°53' E 001°22'510.0
2017-May-18 02:00N 40°55' E 001°28'7 9.9
2017-May-18 01:21N 40°58' E 001°36'4 9.8
2017-May-18 00:58N 40°60' E 001°40'5 9.9
2017-May-18 00:30N 41°02' E 001°46'5 9.7
2017-May-18 00:00N 41°04' E 001°51'5 9.8
2017-May-17 23:30N 41°06' E 001°57'5 9.8
2017-May-17 23:00N 41°08' E 002°03'5 9.9
2017-May-17 22:30N 41°11' E 002°09'610.1
2017-May-17 21:57N 41°13' E 002°15'510.2
2017-May-17 21:30N 41°15' E 002°21'510.0
2017-May-17 21:00N 41°18' E 002°26'43 9.8
2017-May-17 16:36N 41°45' E 003°11'1 9.5
2017-May-17 16:28N 41°46' E 003°12'5 9.6
2017-May-17 15:57N 41°50' E 003°17'24 9.4
2017-May-17 13:24N 42°13' E 003°25'5 9.7
2017-May-17 12:56N 42°17' E 003°26'5 9.7
2017-May-17 12:24N 42°22' E 003°27'14 9.7
2017-May-17 10:59N 42°36' E 003°29'5 9.7
2017-May-17 10:25N 42°41' E 003°30'12 9.6
2017-May-17 09:08N 42°54' E 003°29'6 9.5
2017-May-17 08:28N 43°00' E 003°29'7 9.8
2017-May-17 07:48N 43°07' E 003°29'20 2.7
2017-May-17 00:30N 43°24' E 003°42'0 0.0
2017-May-16 22:28N 43°24' E 003°42'0 0.0
2017-May-16 18:31N 43°24' E 003°42'0 0.0
2017-May-16 18:30N 43°24' E 003°42'0 0.0
2017-May-16 16:30N 43°24' E 003°42'0 0.0
2017-May-16 14:31N 43°24' E 003°42'0 0.0
2017-May-16 13:51N 43°24' E 003°42'0 0.0
2017-May-16 13:24N 43°24' E 003°42'0 0.0
2017-May-16 12:54N 43°24' E 003°42'  
Track history (hours):
 
Tides and Currents Weather Stations Pressure Air Temp Water Temp Dewpoint Dewpoint Depression Visibility Wind Speed Wind Dir Waves Ship Positions

F/V Roger Christian3

Last reported at 2017-May-26 05:53 UTC. Time now 2017-May-26 09:21 UTC.
Position N 38°20' E 000°55'.

Length 24 m; draft 4 m.

Type: Fishing. MMSI: 228173800.

Date/timePositionNaut miles runAvg speedWind from/ knotsBaromVisibWave heightAir tempDewpointWater temp
2017-May-26 05:53N 38°20' E 000°55'0 0.5
2017-May-26 05:29N 38°20' E 000°55'0 0.5
2017-May-26 04:59N 38°20' E 000°55'1 0.5
2017-May-26 03:35N 38°21' E 000°55'0 0.5
2017-May-26 03:24N 38°21' E 000°55'2 0.7
2017-May-26 00:31N 38°23' E 000°56'0 0.7
2017-May-26 00:26N 38°23' E 000°56'0 0.6
2017-May-25 23:52N 38°23' E 000°56'0 0.6
2017-May-25 23:29N 38°23' E 000°56'1 0.6
2017-May-25 22:02N 38°24' E 000°56'0 0.7
2017-May-25 22:01N 38°24' E 000°56'0 0.6
2017-May-25 21:24N 38°24' E 000°56'0 0.5
2017-May-25 20:59N 38°25' E 000°55'0 0.6
2017-May-25 20:30N 38°25' E 000°55'0 0.5
2017-May-25 20:00N 38°25' E 000°55'0 0.5
2017-May-25 19:30N 38°26' E 000°55'1 0.6
2017-May-25 17:25N 38°27' E 000°56'1 0.5
2017-May-25 14:58N 38°26' E 000°57'1 0.7
2017-May-25 13:54N 38°25' E 000°57'0 0.7
2017-May-25 13:30N 38°25' E 000°57'0 0.7
2017-May-25 13:00N 38°25' E 000°57'0 0.7
2017-May-25 12:30N 38°24' E 000°57'0 0.7
2017-May-25 11:57N 38°24' E 000°58'0 0.6
2017-May-25 11:30N 38°24' E 000°58'4 0.5
2017-May-25 02:18N 38°26' E 001°03'3 0.6
2017-May-24 21:15N 38°26' E 000°59'1 1.2
2017-May-24 20:37N 38°26' E 000°58'1 1.2
2017-May-24 20:09N 38°26' E 000°57'1 1.3
2017-May-24 19:44N 38°25' E 000°57'0 1.2
2017-May-24 19:30N 38°25' E 000°56'0 1.0
2017-May-24 19:00N 38°25' E 000°56'0 0.8
2017-May-24 18:30N 38°25' E 000°55'3 0.4
2017-May-24 10:55N 38°23' E 000°59'5 1.2
2017-May-24 07:06N 38°22' E 001°04'0 1.2
2017-May-24 06:57N 38°22' E 001°05'1 1.3
2017-May-24 06:30N 38°22' E 001°05'1 1.3
2017-May-24 05:58N 38°21' E 001°06'1 1.5
2017-May-24 05:21N 38°21' E 001°07'1 2.0
2017-May-24 04:59N 38°20' E 001°07'1 1.8
2017-May-24 04:30N 38°20' E 001°06'1 1.4
2017-May-24 04:00N 38°20' E 001°05'5 1.3
2017-May-24 00:39N 38°24' E 001°02'0 1.4
2017-May-24 00:30N 38°24' E 001°02'1 1.3
2017-May-23 23:59N 38°24' E 001°01'4 1.1
2017-May-23 20:28N 38°28' E 000°59'5 0.6
2017-May-23 12:16N 38°24' E 001°01'13 1.1
2017-May-23 00:24N 38°36' E 000°57'1 1.9
2017-May-23 00:00N 38°37' E 000°57'9 1.7
2017-May-22 18:42N 38°46' E 000°57'1 1.4
2017-May-22 18:10N 38°47' E 000°56'0 1.4
2017-May-22 18:00N 38°47' E 000°56'1 1.4
2017-May-22 17:30N 38°47' E 000°56'1 1.3
2017-May-22 16:59N 38°48' E 000°56'1 1.3
2017-May-22 16:30N 38°49' E 000°56'1 1.4
2017-May-22 15:58N 38°49' E 000°56'1 1.4
2017-May-22 15:08N 38°51' E 000°56'3 1.5
2017-May-22 12:50N 38°54' E 000°56'51 2.1
2017-May-21 12:54N 39°45' E 000°56'11 2.1
2017-May-21 07:37N 39°56' E 000°56'1 2.2
2017-May-21 07:17N 39°57' E 000°56'1 2.2
2017-May-21 07:00N 39°58' E 000°56'1 2.2
2017-May-21 06:30N 39°59' E 000°56'1 2.3
2017-May-21 06:00N 39°60' E 000°56'1 2.3
2017-May-21 05:30N 40°01' E 000°56'1 2.4
2017-May-21 04:59N 40°02' E 000°56'1 2.4
2017-May-21 04:30N 40°03' E 000°56'2 2.4
2017-May-21 03:48N 40°05' E 000°56'1 2.5
2017-May-21 03:28N 40°06' E 000°56'1 2.5
2017-May-21 02:53N 40°07' E 000°56'1 2.6
2017-May-21 02:27N 40°09' E 000°55'1 2.6
2017-May-21 01:58N 40°10' E 000°55'1 2.6
2017-May-21 01:30N 40°11' E 000°55'1 2.6
2017-May-21 00:59N 40°12' E 000°55'1 2.4
2017-May-21 00:30N 40°13' E 000°56'1 2.3
2017-May-21 00:00N 40°14' E 000°56'1 2.3
2017-May-20 23:30N 40°16' E 000°56'3 2.4
2017-May-20 22:09N 40°19' E 000°57'0 2.3
2017-May-20 21:57N 40°19' E 000°57'1 2.3
2017-May-20 21:25N 40°20' E 000°57'1 2.3
2017-May-20 21:00N 40°21' E 000°57'1 2.3
2017-May-20 20:30N 40°23' E 000°57'1 2.2
2017-May-20 20:00N 40°24' E 000°57'1 2.3
2017-May-20 19:29N 40°25' E 000°57'1 2.2
2017-May-20 19:00N 40°26' E 000°57'1 2.2
2017-May-20 18:30N 40°27' E 000°57'1 2.2
2017-May-20 17:56N 40°28' E 000°57'2 2.2
2017-May-20 17:13N 40°30' E 000°57'1 2.1
2017-May-20 16:56N 40°30' E 000°57'1 2.1
2017-May-20 16:29N 40°31' E 000°57'1 2.1
2017-May-20 15:51N 40°33' E 000°57'1 2.0
2017-May-20 15:26N 40°34' E 000°57'4 2.0
2017-May-20 13:39N 40°37' E 000°57'0 2.0
2017-May-20 13:30N 40°37' E 000°57'1 2.1
2017-May-20 12:59N 40°38' E 000°57'16 0.9
2017-May-19 18:26N 40°53' E 000°48'10 0.4
2017-May-18 16:27N 40°44' E 000°56'610.2
2017-May-18 15:50N 40°38' E 000°53'511.3
2017-May-18 15:24N 40°35' E 000°48'7 1.7
2017-May-18 11:27N 40°39' E 000°56'15 3.1
2017-May-18 06:32N 40°53' E 000°48'0 0.1
2017-May-18 06:25N 40°53' E 000°48'24 6.4
2017-May-18 02:40N 40°53' E 001°20'210.1
2017-May-18 02:29N 40°53' E 001°22'510.0
2017-May-18 02:00N 40°55' E 001°28'7 9.9
2017-May-18 01:21N 40°58' E 001°36'4 9.8
2017-May-18 00:58N 40°60' E 001°40'5 9.9
2017-May-18 00:30N 41°02' E 001°46'5 9.7
2017-May-18 00:00N 41°04' E 001°51'5 9.8
2017-May-17 23:30N 41°06' E 001°57'5 9.8
2017-May-17 23:00N 41°08' E 002°03'5 9.9
2017-May-17 22:30N 41°11' E 002°09'610.1
2017-May-17 21:57N 41°13' E 002°15'510.2
2017-May-17 21:30N 41°15' E 002°21'510.0
2017-May-17 21:00N 41°18' E 002°26'43 9.8
2017-May-17 16:36N 41°45' E 003°11'1 9.5
2017-May-17 16:28N 41°46' E 003°12'5 9.6
2017-May-17 15:57N 41°50' E 003°17'24 9.4
2017-May-17 13:24N 42°13' E 003°25'5 9.7
2017-May-17 12:56N 42°17' E 003°26'5 9.7
2017-May-17 12:24N 42°22' E 003°27'14 9.7
2017-May-17 10:59N 42°36' E 003°29'5 9.7
2017-May-17 10:25N 42°41' E 003°30'12 9.6
2017-May-17 09:08N 42°54' E 003°29'6 9.5
2017-May-17 08:28N 43°00' E 003°29'7 9.8
2017-May-17 07:48N 43°07' E 003°29'20 2.7
2017-May-17 00:30N 43°24' E 003°42'0 0.0
2017-May-16 22:28N 43°24' E 003°42'0 0.0
2017-May-16 18:31N 43°24' E 003°42'0 0.0
2017-May-16 18:30N 43°24' E 003°42'0 0.0
2017-May-16 16:30N 43°24' E 003°42'0 0.0
2017-May-16 14:31N 43°24' E 003°42'0 0.0
2017-May-16 13:51N 43°24' E 003°42'0 0.0
2017-May-16 13:24N 43°24' E 003°42'0 0.0
2017-May-16 12:54N 43°24' E 003°42'  

Dump ship's entire track history